Time;durP1;ratioP1;P1;durP2;ratioP2;P2;SDS_P1;SDS_P2;PMS_P1;PMS_P2;Temp;Humidity;BMP_temperature;BMP_pressure;BME280_temperature;BME280_humidity;BME280_pressure;Samples;Min_cycle;Max_cycle;Signal;HPM_P1;HPM_P2
2021/11/24 00:01:29;;;;;;;17.23;9.05;;;19.90;99.90;;;;;;4179437;28;20212;-75
2021/11/24 00:03:32;;;;;;;12.65;8.98;;;19.90;99.90;;;;;;4176236;28;20264;-75
2021/11/24 00:05:34;;;;;;;17.77;8.73;;;19.90;99.90;;;;;;4172709;28;20274;-75
2021/11/24 00:07:38;;;;;;;15.35;8.45;;;19.90;99.90;;;;;;4180585;28;20673;-75
2021/11/24 00:09:41;;;;;;;17.95;9.43;;;19.90;99.90;;;;;;4179656;28;21065;-74
2021/11/24 00:11:47;;;;;;;12.00;8.80;;;19.90;99.90;;;;;;4183985;28;20255;-74
2021/11/24 00:13:50;;;;;;;14.57;8.75;;;19.90;99.90;;;;;;4185803;28;20227;-74
2021/11/24 00:15:52;;;;;;;12.70;8.55;;;19.90;99.90;;;;;;4183864;28;20253;-74
2021/11/24 00:17:54;;;;;;;16.35;9.23;;;19.90;99.90;;;;;;4191513;28;20219;-75
2021/11/24 00:19:57;;;;;;;16.05;8.75;;;19.90;99.90;;;;;;4179647;28;20269;-74
2021/11/24 00:21:59;;;;;;;17.40;8.88;;;19.90;99.90;;;;;;4176669;28;20216;-75
2021/11/24 00:24:01;;;;;;;17.33;9.05;;;19.90;99.90;;;;;;4176281;28;20224;-75
2021/11/24 00:26:04;;;;;;;14.77;8.93;;;19.90;99.90;;;;;;4179110;28;20261;-74
2021/11/24 00:28:08;;;;;;;16.10;9.13;;;19.80;99.90;;;;;;4181484;28;20656;-74
2021/11/24 00:30:11;;;;;;;14.45;8.55;;;19.90;99.90;;;;;;4176585;28;20559;-75
2021/11/24 00:32:13;;;;;;;15.88;8.88;;;19.90;99.90;;;;;;4179571;28;20247;-74
2021/11/24 00:34:15;;;;;;;16.05;9.35;;;19.80;99.90;;;;;;4179133;28;20224;-75
2021/11/24 00:36:17;;;;;;;16.20;9.18;;;19.80;99.90;;;;;;4179639;28;20968;-74
2021/11/24 00:38:20;;;;;;;17.48;8.82;;;19.80;99.90;;;;;;4178693;28;20223;-75
2021/11/24 00:40:22;;;;;;;15.98;8.88;;;19.80;99.90;;;;;;4176977;28;20211;-74
2021/11/24 00:42:25;;;;;;;16.48;9.30;;;19.80;99.90;;;;;;4177711;28;20208;-75
2021/11/24 00:44:28;;;;;;;16.70;9.55;;;19.80;99.90;;;;;;4179005;28;20262;-74
2021/11/24 00:46:30;;;;;;;19.33;9.18;;;19.80;99.90;;;;;;4177684;28;20242;-75
2021/11/24 00:48:33;;;;;;;16.98;9.32;;;19.80;99.90;;;;;;4176467;28;20273;-75
2021/11/24 00:50:35;;;;;;;17.20;9.18;;;19.70;99.90;;;;;;4177893;28;20654;-74
2021/11/24 00:52:38;;;;;;;15.38;9.00;;;19.70;99.90;;;;;;4188822;28;20265;-75
2021/11/24 00:54:40;;;;;;;14.70;8.73;;;19.80;99.90;;;;;;4176213;28;20277;-74
2021/11/24 00:56:42;;;;;;;19.77;10.48;;;19.80;99.90;;;;;;4178792;28;20253;-75
2021/11/24 00:58:45;;;;;;;15.35;9.02;;;19.80;99.90;;;;;;4178076;28;20628;-74
2021/11/24 01:00:49;;;;;;;19.92;9.20;;;19.80;99.90;;;;;;4178968;28;20227;-75
2021/11/24 01:02:51;;;;;;;18.42;9.23;;;19.70;99.90;;;;;;4178965;28;20227;-74
2021/11/24 01:04:53;;;;;;;20.75;9.88;;;19.70;99.90;;;;;;4175787;28;20220;-74
2021/11/24 01:06:56;;;;;;;20.38;9.85;;;19.70;99.90;;;;;;4178504;28;20266;-75
2021/11/24 01:08:58;;;;;;;18.80;9.38;;;19.70;99.90;;;;;;4178503;28;20220;-75
2021/11/24 01:11:00;;;;;;;20.58;9.95;;;19.70;99.90;;;;;;4178272;28;20273;-74
2021/11/24 01:13:03;;;;;;;20.42;10.55;;;19.80;99.90;;;;;;4179417;28;20220;-75
2021/11/24 01:15:07;;;;;;;19.83;9.30;;;19.70;99.90;;;;;;4177538;28;20623;-74
2021/11/24 01:17:10;;;;;;;15.73;9.45;;;19.70;99.90;;;;;;4172418;28;20264;-74
2021/11/24 01:19:13;;;;;;;19.58;9.70;;;19.70;99.90;;;;;;4178326;28;20656;-74
2021/11/24 01:21:15;;;;;;;18.15;9.23;;;19.70;99.90;;;;;;4175839;28;20665;-74
2021/11/24 01:23:18;;;;;;;17.05;9.52;;;19.70;99.90;;;;;;4178358;28;20293;-75
2021/11/24 01:25:20;;;;;;;19.45;10.00;;;19.60;99.90;;;;;;4178335;28;20676;-75
2021/11/24 01:27:23;;;;;;;18.83;9.88;;;19.60;99.90;;;;;;4178967;28;20305;-74
2021/11/24 01:29:25;;;;;;;23.45;10.35;;;19.60;99.90;;;;;;4180680;28;20224;-74
2021/11/24 01:31:27;;;;;;;20.98;9.68;;;19.70;99.90;;;;;;4194470;28;20641;-74
2021/11/24 01:33:31;;;;;;;20.42;9.60;;;19.60;99.90;;;;;;4180151;28;20597;-74
2021/11/24 01:35:33;;;;;;;21.05;9.80;;;19.60;99.90;;;;;;4194818;28;20216;-75
2021/11/24 01:37:36;;;;;;;17.90;9.70;;;19.60;99.90;;;;;;4193986;28;20269;-75
2021/11/24 01:39:39;;;;;;;21.40;10.55;;;19.60;99.90;;;;;;4175766;28;20211;-74
2021/11/24 01:41:41;;;;;;;22.05;9.95;;;19.60;99.90;;;;;;4177961;28;20208;-74
2021/11/24 01:43:43;;;;;;;18.45;9.52;;;19.60;99.90;;;;;;4179651;28;20281;-74
2021/11/24 01:45:46;;;;;;;20.10;9.50;;;19.60;99.90;;;;;;4176657;28;20220;-74
2021/11/24 01:47:50;;;;;;;18.80;9.65;;;19.60;99.90;;;;;;4186472;28;20660;-74
2021/11/24 01:49:54;;;;;;;21.42;10.07;;;19.60;99.90;;;;;;4183930;28;20273;-74
2021/11/24 01:51:57;;;;;;;20.83;10.25;;;19.50;99.90;;;;;;4178715;28;20244;-74
2021/11/24 01:53:59;;;;;;;23.38;10.23;;;19.50;99.90;;;;;;4178401;28;20238;-75
2021/11/24 01:56:02;;;;;;;21.20;10.88;;;19.60;99.90;;;;;;4180748;28;20289;-74
2021/11/24 01:58:04;;;;;;;18.33;10.27;;;19.50;99.90;;;;;;4179061;28;20227;-74
2021/11/24 02:00:08;;;;;;;18.48;10.25;;;19.50;99.90;;;;;;4176878;28;20257;-75
2021/11/24 02:02:11;;;;;;;21.40;10.48;;;19.50;99.90;;;;;;4179869;28;20207;-74
2021/11/24 02:04:16;;;;;;;20.73;9.85;;;19.50;99.90;;;;;;4194547;28;20658;-75
2021/11/24 02:06:20;;;;;;;23.02;9.90;;;19.50;99.90;;;;;;4176404;28;20216;-74
2021/11/24 02:08:22;;;;;;;17.70;9.40;;;19.50;99.90;;;;;;4182454;28;20338;-75
2021/11/24 02:10:25;;;;;;;19.80;10.43;;;19.50;99.90;;;;;;4181647;28;20277;-74
2021/11/24 02:12:27;;;;;;;18.63;9.95;;;19.50;99.90;;;;;;4184376;28;20243;-75
2021/11/24 02:14:30;;;;;;;19.25;9.55;;;19.50;99.90;;;;;;4195549;28;20215;-75
2021/11/24 02:16:32;;;;;;;20.83;10.68;;;19.50;99.90;;;;;;4178633;28;20216;-75
2021/11/24 02:18:34;;;;;;;22.58;11.07;;;19.50;99.90;;;;;;4193470;28;20214;-75
2021/11/24 02:20:41;;;;;;;17.42;9.57;;;19.50;99.90;;;;;;4197566;28;20222;-74
2021/11/24 02:22:43;;;;;;;20.85;10.20;;;19.50;99.90;;;;;;4196906;28;20291;-74
2021/11/24 02:24:46;;;;;;;23.63;10.77;;;19.50;99.90;;;;;;4197438;28;20223;-74
2021/11/24 02:26:48;;;;;;;21.20;9.95;;;19.40;99.90;;;;;;4197394;28;20260;-74
2021/11/24 02:28:50;;;;;;;21.08;10.68;;;19.40;99.90;;;;;;4182338;28;20273;-75
2021/11/24 02:30:53;;;;;;;18.42;9.95;;;19.40;99.90;;;;;;4180983;28;20246;-75
2021/11/24 02:32:55;;;;;;;21.42;10.48;;;19.40;99.90;;;;;;4181347;28;20255;-74
2021/11/24 02:34:57;;;;;;;22.05;10.05;;;19.40;99.90;;;;;;4181289;28;20219;-74
2021/11/24 02:37:01;;;;;;;20.77;10.32;;;19.40;99.90;;;;;;4181264;28;20227;-74
2021/11/24 02:39:04;;;;;;;25.63;10.55;;;19.40;99.90;;;;;;4180944;28;20216;-75
2021/11/24 02:41:07;;;;;;;20.00;10.18;;;19.40;99.90;;;;;;4181042;28;20742;-74
2021/11/24 02:43:10;;;;;;;21.73;10.80;;;19.40;99.90;;;;;;4182048;28;20223;-75
2021/11/24 02:45:12;;;;;;;24.15;10.43;;;19.40;99.90;;;;;;4180324;28;20219;-74
2021/11/24 02:47:19;;;;;;;19.38;10.10;;;19.40;99.90;;;;;;4179341;28;20277;-75
2021/11/24 02:49:21;;;;;;;19.25;10.40;;;19.40;99.90;;;;;;4178621;28;20557;-75
2021/11/24 02:51:23;;;;;;;21.30;9.90;;;19.40;99.90;;;;;;4180791;28;20242;-75
2021/11/24 02:53:28;;;;;;;21.65;11.05;;;19.40;99.90;;;;;;4181326;28;20248;-74
2021/11/24 02:55:31;;;;;;;25.40;11.45;;;19.40;99.90;;;;;;4179616;28;20219;-74
2021/11/24 02:57:35;;;;;;;21.27;10.35;;;19.40;99.90;;;;;;4180825;28;20216;-74
2021/11/24 02:59:38;;;;;;;20.52;10.43;;;19.30;99.90;;;;;;4196810;28;20215;-74
2021/11/24 03:01:42;;;;;;;20.23;11.38;;;19.40;99.90;;;;;;4196747;28;20219;-74
2021/11/24 03:03:45;;;;;;;23.90;10.93;;;19.40;99.90;;;;;;4183458;28;20230;-74
2021/11/24 03:05:47;;;;;;;25.38;11.18;;;19.40;99.90;;;;;;4178074;28;20216;-74
2021/11/24 03:07:51;;;;;;;22.40;11.25;;;19.40;99.90;;;;;;4180488;28;20220;-74
2021/11/24 03:09:54;;;;;;;23.73;11.40;;;19.40;99.90;;;;;;4180236;28;20216;-74
2021/11/24 03:11:57;;;;;;;22.85;11.18;;;19.40;99.90;;;;;;4180415;28;20211;-75
2021/11/24 03:13:59;;;;;;;19.52;10.35;;;19.40;99.90;;;;;;4186034;28;20293;-74
2021/11/24 03:16:01;;;;;;;19.55;10.02;;;19.30;99.90;;;;;;4185762;28;20227;-74
2021/11/24 03:18:04;;;;;;;18.00;10.65;;;19.30;99.90;;;;;;4192158;28;20225;-75
2021/11/24 03:20:08;;;;;;;22.67;11.48;;;19.40;99.90;;;;;;4190880;28;20661;-75
2021/11/24 03:22:12;;;;;;;22.70;11.10;;;19.40;99.90;;;;;;4178340;28;20216;-75
2021/11/24 03:24:14;;;;;;;21.08;10.77;;;19.30;99.90;;;;;;4180615;28;20629;-75
2021/11/24 03:26:18;;;;;;;21.35;10.80;;;19.30;99.90;;;;;;4179799;28;20633;-74
2021/11/24 03:28:20;;;;;;;23.35;10.93;;;19.30;99.90;;;;;;4183889;28;20273;-74
2021/11/24 03:30:25;;;;;;;22.83;11.50;;;19.30;99.90;;;;;;4196484;28;20667;-75
2021/11/24 03:32:28;;;;;;;20.45;10.85;;;19.20;99.90;;;;;;4196301;28;20241;-74
2021/11/24 03:34:30;;;;;;;22.77;11.65;;;19.30;99.90;;;;;;4178709;28;20224;-74
2021/11/24 03:36:33;;;;;;;23.58;11.23;;;19.30;99.90;;;;;;4195585;28;20211;-74
2021/11/24 03:38:36;;;;;;;24.35;11.02;;;19.30;99.90;;;;;;4179333;28;20277;-75
2021/11/24 03:40:38;;;;;;;19.80;11.02;;;19.30;99.90;;;;;;4179672;28;20215;-75
2021/11/24 03:42:45;;;;;;;23.23;11.45;;;19.30;99.90;;;;;;4195879;28;20269;-74
2021/11/24 03:44:48;;;;;;;25.45;11.43;;;19.30;99.90;;;;;;4177025;28;20220;-75
2021/11/24 03:46:50;;;;;;;21.27;11.52;;;19.30;99.90;;;;;;4179960;28;20668;-74
2021/11/24 03:48:53;;;;;;;22.08;11.82;;;19.30;99.90;;;;;;4182662;28;20227;-74
2021/11/24 03:50:55;;;;;;;24.20;11.85;;;19.30;99.90;;;;;;4177315;28;20216;-74
2021/11/24 03:52:58;;;;;;;22.55;11.70;;;19.30;99.90;;;;;;4191772;28;20239;-74
2021/11/24 03:55:00;;;;;;;22.45;11.57;;;19.30;99.90;;;;;;4177649;28;20266;-74
2021/11/24 03:57:04;;;;;;;21.77;11.82;;;19.30;99.90;;;;;;4179775;28;20227;-75
2021/11/24 03:59:07;;;;;;;20.10;11.00;;;19.30;99.90;;;;;;4179588;28;20228;-74
2021/11/24 04:01:10;;;;;;;27.05;11.98;;;19.30;99.90;;;;;;4179604;28;20269;-74
2021/11/24 04:03:12;;;;;;;21.95;11.10;;;19.30;99.90;;;;;;4185614;28;20209;-75
2021/11/24 04:05:15;;;;;;;19.52;10.73;;;19.30;99.90;;;;;;4176769;28;20219;-74
2021/11/24 04:07:17;;;;;;;21.48;12.02;;;19.30;99.90;;;;;;4178578;28;20215;-74
2021/11/24 04:09:20;;;;;;;26.20;12.70;;;19.30;99.90;;;;;;4181819;28;20220;-74
2021/11/24 04:11:22;;;;;;;24.45;11.68;;;19.20;99.90;;;;;;4187667;28;20212;-74
2021/11/24 04:13:24;;;;;;;23.00;11.40;;;19.20;99.90;;;;;;4178967;28;20243;-74
2021/11/24 04:15:28;;;;;;;22.55;11.93;;;19.20;99.90;;;;;;4191834;28;20218;-74
2021/11/24 04:17:30;;;;;;;23.33;11.68;;;19.20;99.90;;;;;;4193935;28;20272;-74
2021/11/24 04:19:33;;;;;;;22.95;11.40;;;19.20;99.90;;;;;;4182638;28;20223;-74
2021/11/24 04:21:35;;;;;;;22.30;11.93;;;19.20;99.90;;;;;;4194235;28;20223;-74
2021/11/24 04:23:37;;;;;;;24.25;11.85;;;19.20;99.90;;;;;;4189465;28;20232;-75
2021/11/24 04:25:40;;;;;;;24.45;11.77;;;19.20;99.90;;;;;;4178927;28;20223;-74
2021/11/24 04:27:43;;;;;;;19.35;11.10;;;19.20;99.90;;;;;;4177810;28;20242;-74
2021/11/24 04:29:46;;;;;;;22.95;11.55;;;19.20;99.90;;;;;;4178909;28;20281;-74
2021/11/24 04:31:49;;;;;;;21.02;11.05;;;19.20;99.90;;;;;;4179381;28;20268;-74
2021/11/24 04:33:52;;;;;;;21.17;11.82;;;19.20;99.90;;;;;;4179551;28;20293;-74
2021/11/24 04:35:54;;;;;;;21.10;11.95;;;19.10;99.90;;;;;;4179044;28;20270;-75
2021/11/24 04:37:57;;;;;;;23.92;11.40;;;19.10;99.90;;;;;;4178840;28;20211;-74
2021/11/24 04:39:59;;;;;;;21.13;12.05;;;19.20;99.90;;;;;;4195207;28;20226;-74
2021/11/24 04:42:01;;;;;;;20.42;11.55;;;19.20;99.90;;;;;;4188843;28;20212;-74
2021/11/24 04:44:04;;;;;;;22.45;12.07;;;19.20;99.90;;;;;;4178876;28;20278;-74
2021/11/24 04:46:06;;;;;;;21.73;11.90;;;19.20;99.90;;;;;;4177426;28;20721;-74
2021/11/24 04:48:11;;;;;;;20.58;11.68;;;19.10;99.90;;;;;;4179693;28;20219;-74
2021/11/24 04:50:15;;;;;;;22.33;11.77;;;19.10;99.90;;;;;;4178731;28;20219;-74
2021/11/24 04:52:17;;;;;;;22.02;12.15;;;19.20;99.90;;;;;;4178574;28;20215;-74
2021/11/24 04:54:20;;;;;;;20.95;12.23;;;19.20;99.90;;;;;;4178899;28;20242;-74
2021/11/24 04:56:22;;;;;;;18.38;11.15;;;19.10;99.90;;;;;;4178339;28;20212;-74
2021/11/24 04:58:25;;;;;;;21.75;11.88;;;19.10;99.90;;;;;;4181415;28;20258;-74
2021/11/24 05:00:27;;;;;;;19.35;11.13;;;19.10;99.90;;;;;;4195036;28;20215;-74
2021/11/24 05:02:29;;;;;;;18.05;11.15;;;19.10;99.90;;;;;;4179446;28;20273;-74
2021/11/24 05:04:33;;;;;;;23.25;11.85;;;19.20;99.90;;;;;;4187679;28;20679;-74
2021/11/24 05:06:35;;;;;;;19.60;11.15;;;19.10;99.90;;;;;;4183156;28;20268;-74
2021/11/24 05:08:39;;;;;;;19.90;11.60;;;19.10;99.90;;;;;;4179690;28;20268;-75
2021/11/24 05:10:42;;;;;;;22.52;12.00;;;19.10;99.90;;;;;;4178594;28;20460;-74
2021/11/24 05:12:44;;;;;;;24.35;12.63;;;19.10;99.90;;;;;;4178655;28;20219;-74
2021/11/24 05:14:49;;;;;;;20.65;11.93;;;19.10;99.90;;;;;;4179494;28;20235;-75
2021/11/24 05:16:51;;;;;;;20.42;12.05;;;19.10;99.90;;;;;;4191312;28;20253;-74
2021/11/24 05:18:54;;;;;;;20.92;12.20;;;19.10;99.90;;;;;;4191850;28;20227;-75
2021/11/24 05:21:03;;;;;;;22.17;12.77;;;19.10;99.90;;;;;;4178396;28;20224;-74
2021/11/24 05:23:07;;;;;;;18.60;11.85;;;19.10;99.90;;;;;;4178216;28;20277;-74
2021/11/24 05:25:10;;;;;;;20.90;12.38;;;19.10;99.90;;;;;;4193506;28;20744;-74
2021/11/24 05:27:12;;;;;;;22.10;12.00;;;19.10;99.90;;;;;;4194747;28;20268;-74
2021/11/24 05:29:14;;;;;;;18.38;11.80;;;19.10;99.90;;;;;;4194552;28;20285;-74
2021/11/24 05:31:17;;;;;;;20.95;12.73;;;19.00;99.90;;;;;;4194977;28;20264;-74
2021/11/24 05:33:19;;;;;;;18.52;12.18;;;19.10;99.90;;;;;;4194869;28;20219;-75
2021/11/24 05:35:22;;;;;;;20.50;12.65;;;19.10;99.90;;;;;;4177928;28;20253;-75
2021/11/24 05:37:26;;;;;;;22.58;12.82;;;19.10;99.90;;;;;;4178001;28;20633;-74
2021/11/24 05:39:28;;;;;;;18.67;11.77;;;19.00;99.90;;;;;;4187823;28;20272;-74
2021/11/24 05:41:30;;;;;;;21.02;12.43;;;19.10;99.90;;;;;;4188510;28;20219;-74
2021/11/24 05:43:32;;;;;;;21.00;12.45;;;19.10;99.90;;;;;;4179582;28;20347;-75
2021/11/24 05:45:40;;;;;;;17.52;11.35;;;19.10;99.90;;;;;;4182334;28;20211;-74
2021/11/24 05:47:55;;;;;;;22.85;11.20;;;19.10;99.90;;;;;;4192718;28;20625;-74
2021/11/24 05:49:57;;;;;;;19.02;11.45;;;19.10;99.90;;;;;;4184867;28;20211;-75
2021/11/24 05:52:00;;;;;;;21.65;13.57;;;19.10;99.90;;;;;;4175621;28;20215;-74
2021/11/24 05:54:04;;;;;;;21.05;12.95;;;18.90;99.90;;;;;;4178019;28;20252;-74
2021/11/24 05:56:06;;;;;;;21.90;12.80;;;18.90;99.90;;;;;;4178767;28;20212;-74
2021/11/24 05:58:09;;;;;;;17.20;11.02;;;18.80;99.90;;;;;;4181106;28;20219;-74
2021/11/24 06:00:12;;;;;;;20.17;12.77;;;18.80;99.90;;;;;;4182162;28;20273;-75
2021/11/24 06:02:15;;;;;;;19.50;12.55;;;18.80;99.90;;;;;;4181337;28;20272;-74
2021/11/24 06:04:17;;;;;;;17.13;11.82;;;18.90;99.90;;;;;;4181531;28;20625;-74
2021/11/24 06:06:19;;;;;;;18.48;11.60;;;19.00;99.90;;;;;;4181403;28;20211;-74
2021/11/24 06:08:25;;;;;;;20.10;12.68;;;19.10;99.90;;;;;;4197538;28;20733;-74
2021/11/24 06:10:28;;;;;;;19.63;12.18;;;19.10;99.90;;;;;;4179887;28;20223;-74
2021/11/24 06:12:31;;;;;;;20.00;12.82;;;19.10;99.90;;;;;;4181084;28;20220;-74
2021/11/24 06:14:33;;;;;;;19.95;12.48;;;19.20;99.90;;;;;;4181326;28;20742;-74
2021/11/24 06:16:35;;;;;;;20.13;12.82;;;19.20;99.90;;;;;;4191954;28;20663;-75
2021/11/24 06:18:38;;;;;;;16.52;11.48;;;19.30;99.90;;;;;;4197444;28;20215;-74
2021/11/24 06:20:41;;;;;;;18.77;12.02;;;19.30;99.90;;;;;;4182936;28;20223;-74
2021/11/24 06:22:46;;;;;;;19.90;12.27;;;19.20;99.90;;;;;;4180686;28;20329;-75
2021/11/24 06:24:48;;;;;;;17.65;12.13;;;19.30;99.90;;;;;;4182987;28;20220;-74
2021/11/24 06:26:52;;;;;;;19.38;12.20;;;19.30;99.90;;;;;;4178770;28;20664;-75
2021/11/24 06:28:54;;;;;;;15.45;10.50;;;19.30;99.90;;;;;;4197049;28;20219;-74
2021/11/24 06:30:56;;;;;;;16.58;10.52;;;19.30;99.90;;;;;;4180814;28;20268;-74
2021/11/24 06:32:59;;;;;;;18.60;11.45;;;19.30;99.90;;;;;;4180669;28;20212;-74
2021/11/24 06:35:01;;;;;;;17.02;10.90;;;19.30;99.90;;;;;;4191285;28;20764;-74
2021/11/24 06:37:04;;;;;;;19.77;12.50;;;19.30;99.90;;;;;;4197759;28;20215;-74
2021/11/24 06:39:06;;;;;;;18.77;11.93;;;19.40;99.90;;;;;;4195668;28;20283;-74
2021/11/24 06:41:08;;;;;;;15.10;10.63;;;19.40;99.90;;;;;;4179313;28;20215;-75
2021/11/24 06:43:12;;;;;;;15.50;10.95;;;19.40;99.90;;;;;;4177831;28;20220;-74
2021/11/24 06:45:15;;;;;;;16.60;10.65;;;19.40;99.90;;;;;;4191298;28;20466;-75
2021/11/24 06:47:17;;;;;;;17.42;12.18;;;19.40;99.90;;;;;;4197435;28;20981;-74
2021/11/24 06:49:20;;;;;;;14.55;9.63;;;19.40;99.90;;;;;;4179801;28;20278;-75
2021/11/24 06:51:22;;;;;;;16.60;10.77;;;19.40;99.90;;;;;;4179722;28;20257;-75
2021/11/24 06:53:24;;;;;;;15.90;10.10;;;19.40;99.90;;;;;;4180640;28;20745;-74
2021/11/24 06:55:27;;;;;;;15.10;10.43;;;19.40;99.90;;;;;;4180745;28;20240;-74
2021/11/24 06:57:29;;;;;;;13.95;10.20;;;19.40;99.90;;;;;;4180723;28;20269;-75
2021/11/24 06:59:33;;;;;;;14.82;10.93;;;19.40;99.90;;;;;;4181584;28;20227;-74
2021/11/24 07:01:35;;;;;;;15.45;10.68;;;19.50;99.90;;;;;;4179987;28;20224;-75
2021/11/24 07:03:38;;;;;;;16.00;11.30;;;19.40;99.90;;;;;;4180602;28;20348;-75
2021/11/24 07:05:40;;;;;;;14.93;10.20;;;19.50;99.90;;;;;;4179797;28;20277;-75
2021/11/24 07:07:42;;;;;;;14.82;10.00;;;19.50;99.90;;;;;;4180354;28;20277;-74
2021/11/24 07:09:46;;;;;;;15.57;10.00;;;19.50;99.90;;;;;;4187328;28;20790;-74
2021/11/24 07:11:48;;;;;;;16.08;9.88;;;19.50;99.90;;;;;;4197001;28;20257;-74
2021/11/24 07:13:50;;;;;;;14.90;10.25;;;19.50;99.90;;;;;;4197003;28;20227;-75
2021/11/24 07:15:54;;;;;;;14.82;9.88;;;19.50;99.90;;;;;;4185955;28;20222;-75
2021/11/24 07:17:56;;;;;;;14.60;9.30;;;19.40;99.90;;;;;;4191038;28;20261;-74
2021/11/24 07:20:01;;;;;;;13.73;9.35;;;19.50;99.90;;;;;;4181164;28;20257;-74
2021/11/24 07:22:03;;;;;;;13.35;9.13;;;19.50;99.90;;;;;;4180297;28;20220;-74
2021/11/24 07:24:06;;;;;;;15.15;9.98;;;19.50;99.90;;;;;;4179925;28;20262;-75
2021/11/24 07:26:09;;;;;;;15.88;10.68;;;19.50;99.90;;;;;;4177964;28;21001;-74
2021/11/24 07:28:13;;;;;;;14.60;10.15;;;19.50;99.90;;;;;;4180290;28;20656;-74
2021/11/24 07:30:17;;;;;;;11.93;9.07;;;19.50;99.90;;;;;;4179879;28;20228;-74
2021/11/24 07:32:21;;;;;;;14.52;10.32;;;19.50;99.90;;;;;;4180111;28;20207;-75
2021/11/24 07:34:23;;;;;;;13.75;9.63;;;19.50;99.90;;;;;;4180126;28;20620;-75
2021/11/24 07:36:26;;;;;;;13.45;9.50;;;19.50;99.90;;;;;;4177379;28;20243;-74
2021/11/24 07:38:28;;;;;;;12.77;8.70;;;19.50;99.90;;;;;;4196175;28;20272;-74
2021/11/24 07:40:31;;;;;;;12.68;8.93;;;19.50;99.90;;;;;;4181596;28;20274;-74
2021/11/24 07:42:33;;;;;;;15.57;9.38;;;19.50;99.90;;;;;;4178350;28;20664;-74
2021/11/24 07:44:35;;;;;;;12.65;9.20;;;19.50;99.90;;;;;;4179846;28;20284;-75
2021/11/24 07:46:38;;;;;;;13.38;8.57;;;19.60;99.90;;;;;;4179562;28;20266;-74
2021/11/24 07:48:41;;;;;;;13.05;9.20;;;19.50;99.90;;;;;;4180501;28;20212;-74
2021/11/24 07:50:43;;;;;;;12.60;8.75;;;19.60;99.90;;;;;;4176144;28;20258;-75
2021/11/24 07:52:46;;;;;;;16.60;11.00;;;19.60;99.90;;;;;;4176762;28;20628;-74
2021/11/24 07:54:48;;;;;;;16.52;10.25;;;19.60;99.90;;;;;;4156374;28;20736;-74
2021/11/24 07:57:20;;;;;;;16.65;10.70;;;19.60;99.90;;;;;;4176824;27;20788;-73
2021/11/24 07:59:23;;;;;;;15.63;10.18;;;19.70;99.90;;;;;;4182569;28;20939;-73
2021/11/24 08:01:25;;;;;;;13.13;8.73;;;19.80;99.90;;;;;;4179880;28;20215;-73
2021/11/24 08:03:27;;;;;;;12.73;8.63;;;19.80;99.90;;;;;;4188603;28;20219;-73
2021/11/24 08:05:30;;;;;;;14.50;8.45;;;19.90;99.90;;;;;;4193613;28;20620;-74
2021/11/24 08:07:33;;;;;;;16.60;10.48;;;19.90;99.90;;;;;;4193453;28;20616;-73
2021/11/24 08:09:35;;;;;;;24.05;11.48;;;19.90;99.90;;;;;;4181036;28;20241;-75
2021/11/24 08:11:37;;;;;;;19.48;10.40;;;19.90;99.90;;;;;;4187034;28;20277;-74
2021/11/24 08:13:41;;;;;;;15.20;10.57;;;20.00;99.90;;;;;;4188166;28;20273;-73
2021/11/24 08:15:43;;;;;;;19.95;10.63;;;19.90;99.90;;;;;;4190409;28;20265;-73
2021/11/24 08:17:45;;;;;;;16.45;10.10;;;20.00;99.90;;;;;;4189624;28;20223;-73
2021/11/24 08:19:49;;;;;;;14.68;10.70;;;20.00;99.90;;;;;;4188916;28;20211;-73
2021/11/24 08:21:51;;;;;;;17.73;9.80;;;20.00;99.90;;;;;;4188418;28;20253;-73
2021/11/24 08:23:53;;;;;;;15.07;10.38;;;20.00;99.90;;;;;;4190619;28;20215;-72
2021/11/24 08:25:56;;;;;;;14.93;10.52;;;20.00;99.90;;;;;;4187836;28;20267;-73
2021/11/24 08:27:59;;;;;;;15.23;9.85;;;20.10;99.90;;;;;;4188354;28;20269;-71
2021/11/24 08:30:05;;;;;;;17.95;10.60;;;20.00;99.90;;;;;;4180675;28;20250;-72
2021/11/24 08:32:08;;;;;;;16.85;11.25;;;20.10;99.90;;;;;;4186676;28;20265;-73
2021/11/24 08:34:12;;;;;;;15.18;9.77;;;20.10;99.90;;;;;;4187775;28;20224;-72
2021/11/24 08:36:15;;;;;;;16.30;8.98;;;20.20;99.90;;;;;;4181362;28;20227;-73
2021/11/24 08:38:18;;;;;;;16.92;10.57;;;20.30;99.90;;;;;;4162226;28;20231;-72
2021/11/24 08:40:20;;;;;;;13.50;9.07;;;20.20;99.90;;;;;;4189390;28;20964;-73
2021/11/24 08:42:25;;;;;;;12.63;9.20;;;20.20;99.90;;;;;;4158737;28;20276;-73
2021/11/24 08:44:27;;;;;;;19.20;10.40;;;20.30;99.90;;;;;;4185625;28;20265;-73
2021/11/24 08:46:31;;;;;;;15.52;10.48;;;20.30;99.90;;;;;;4187706;28;20211;-73
2021/11/24 08:48:34;;;;;;;17.13;10.52;;;20.40;99.90;;;;;;4185394;28;20717;-74
2021/11/24 08:50:37;;;;;;;15.52;10.43;;;20.40;99.90;;;;;;4188055;28;20223;-75
2021/11/24 08:52:39;;;;;;;15.57;10.23;;;20.40;99.90;;;;;;4185935;28;20215;-73
2021/11/24 08:54:42;;;;;;;17.17;10.75;;;20.20;99.90;;;;;;4186690;28;20219;-73
2021/11/24 08:56:44;;;;;;;12.95;9.02;;;20.10;99.90;;;;;;4185197;28;20580;-73
2021/11/24 08:58:47;;;;;;;14.70;8.25;;;20.20;99.90;;;;;;4187423;28;20245;-73
2021/11/24 09:00:49;;;;;;;22.00;10.43;;;20.20;99.90;;;;;;4184937;28;20223;-74
2021/11/24 09:02:53;;;;;;;19.10;10.88;;;20.20;99.90;;;;;;4185606;28;20215;-73
2021/11/24 09:04:55;;;;;;;13.48;8.63;;;20.40;99.90;;;;;;4187529;28;20215;-73
2021/11/24 09:06:58;;;;;;;16.33;9.50;;;20.20;99.90;;;;;;4185749;28;20215;-73
2021/11/24 09:09:00;;;;;;;13.85;9.93;;;20.30;99.90;;;;;;4175356;28;20274;-71
2021/11/24 09:11:02;;;;;;;19.48;10.63;;;20.40;99.90;;;;;;4174556;28;20261;-75
2021/11/24 09:13:05;;;;;;;10.65;7.93;;;20.40;99.90;;;;;;4178562;28;20258;-74
2021/11/24 09:15:08;;;;;;;17.15;8.55;;;20.50;99.90;;;;;;4176454;28;20246;-74
2021/11/24 09:17:10;;;;;;;11.50;8.32;;;20.40;99.90;;;;;;4175450;28;20638;-73
2021/11/24 09:19:13;;;;;;;9.75;7.07;;;20.40;99.90;;;;;;4175376;28;20240;-74
2021/11/24 09:21:17;;;;;;;12.80;7.40;;;20.30;99.90;;;;;;4176887;28;20220;-74
2021/11/24 09:23:22;;;;;;;8.63;6.75;;;20.30;99.90;;;;;;4177347;28;20277;-74
2021/11/24 09:25:35;;;;;;;16.20;7.70;;;20.30;99.90;;;;;;4168778;28;20219;-74
2021/11/24 09:27:46;;;;;;;20.45;8.90;;;20.30;99.90;;;;;;4174806;28;20215;-74
2021/11/24 09:29:48;;;;;;;16.90;12.48;;;20.30;99.90;;;;;;4172916;28;20219;-76
2021/11/24 09:31:51;;;;;;;16.95;10.32;;;20.30;99.90;;;;;;4177416;28;20253;-76
2021/11/24 09:33:53;;;;;;;19.33;10.73;;;20.20;99.90;;;;;;4172261;28;20979;-74
2021/11/24 09:35:57;;;;;;;15.15;8.90;;;20.30;99.90;;;;;;4176246;28;20216;-74
2021/11/24 09:38:00;;;;;;;12.07;8.27;;;20.40;99.90;;;;;;4176853;28;20636;-75
2021/11/24 09:40:05;;;;;;;16.70;8.40;;;20.50;99.90;;;;;;4172634;28;20220;-72
2021/11/24 09:42:08;;;;;;;16.55;9.40;;;20.40;99.90;;;;;;4174507;28;20220;-72
2021/11/24 09:44:10;;;;;;;16.23;8.98;;;20.40;99.90;;;;;;4175068;28;20636;-75
2021/11/24 09:46:16;;;;;;;12.57;9.30;;;20.40;99.90;;;;;;4172833;28;20223;-76
2021/11/24 09:48:20;;;;;;;16.00;8.82;;;20.40;99.90;;;;;;4176022;28;20220;-76
2021/11/24 09:50:25;;;;;;;10.90;6.97;;;20.50;99.90;;;;;;4163174;28;20237;-73
2021/11/24 09:52:29;;;;;;;12.55;7.72;;;20.50;99.90;;;;;;4174041;28;20221;-73
2021/11/24 09:54:31;;;;;;;15.43;8.02;;;20.40;99.90;;;;;;4174483;28;20302;-74
2021/11/24 09:56:34;;;;;;;11.35;7.28;;;20.50;99.90;;;;;;4172973;28;20270;-73
2021/11/24 09:58:36;;;;;;;13.55;7.97;;;20.50;99.90;;;;;;4174014;28;20216;-73
2021/11/24 10:00:40;;;;;;;9.05;6.35;;;20.60;99.90;;;;;;4174064;28;20228;-74
2021/11/24 10:02:43;;;;;;;9.60;7.05;;;20.60;99.90;;;;;;4175658;28;20261;-75
2021/11/24 10:04:46;;;;;;;13.75;6.80;;;20.60;99.90;;;;;;4175585;28;20215;-74
2021/11/24 10:06:49;;;;;;;9.40;6.60;;;20.70;99.90;;;;;;4173982;28;20223;-73
2021/11/24 10:08:53;;;;;;;9.65;6.13;;;20.70;99.90;;;;;;4172500;28;20212;-73
2021/11/24 10:10:56;;;;;;;11.30;7.10;;;20.70;99.90;;;;;;4175151;28;20224;-72
2021/11/24 10:12:58;;;;;;;12.85;6.53;;;20.70;99.90;;;;;;4175581;28;20212;-72
2021/11/24 10:15:02;;;;;;;11.95;6.75;;;20.70;99.90;;;;;;4175335;28;20224;-72
2021/11/24 10:17:06;;;;;;;9.38;6.82;;;20.70;99.90;;;;;;4175604;28;20239;-75
2021/11/24 10:19:10;;;;;;;11.60;6.13;;;20.80;99.90;;;;;;4172631;28;20251;-73
2021/11/24 10:21:15;;;;;;;13.15;7.32;;;20.70;99.90;;;;;;4173871;28;20212;-74
2021/11/24 10:23:33;;;;;;;7.10;5.65;;;20.70;99.90;;;;;;4174474;28;20269;-73
2021/11/24 10:25:36;;;;;;;12.77;8.32;;;20.80;99.90;;;;;;4168217;28;20285;-73
2021/11/24 10:27:44;;;;;;;11.82;7.50;;;20.80;99.90;;;;;;4142662;28;20241;-74